Archival Weather

Alykel

Alykel, Russia (UOOO)

Report from: Tuesday, November 21, 2023 11:00 PM UTC
Current time: Friday, July 19, 2024 2:46 AM UTC

Current weather – Weather history – Daily summaries
Weather forecast

Present weatherLight snow, drifting snow
Temperature-26.0°C (-14.8°F)
Wind chill-39.3°C (-38.8°F)
Dew point-29.0°C (-20.2°F)
Winds 13.6 kts (7 m/s, 15.7 mph) South (170°)
Visibility5 mi. (8 km)
Clouds Ceiling: Broken clouds 4,900 ft. (1,494 m)
Altimeter30.42 in.Hg (1030 mB)
Precip. events QF 10:36 AM
Relative humidity76 %
Density altitude-5,896 ft. (-1,797 m)
Remarks No significant changes expected in the next two hours
Flight conditions Marginal Visual Meteorological Conditions
Raw dataUOOO 212300Z 17007MPS 8000 -SN DRSN BKN049 M26/M29 Q1030 R19/35//60 NOSIG RMK QFE756/1008
An error has occurred. This application may no longer respond until reloaded. Reload 🗙